createdAt,value
2018-05-02T00:01:59.744Z,0.80
2018-05-02T00:04:26.804Z,1.00
2018-05-02T00:06:54.030Z,1.10
2018-05-02T00:09:21.132Z,1.20
2018-05-02T00:11:47.512Z,0.90
2018-05-02T00:14:13.877Z,1.03
2018-05-02T00:16:40.175Z,0.80
2018-05-02T00:19:06.547Z,0.87
2018-05-02T00:21:32.850Z,1.07
2018-05-02T00:23:59.896Z,0.77
2018-05-02T00:26:26.976Z,1.33
2018-05-02T00:28:53.259Z,1.10
2018-05-02T00:31:19.623Z,0.80
2018-05-02T00:33:45.937Z,1.43
2018-05-02T00:36:13.028Z,1.10
2018-05-02T00:38:39.351Z,0.70
2018-05-02T00:41:05.674Z,1.30
2018-05-02T00:43:31.970Z,1.07
2018-05-02T00:45:59.020Z,1.53
2018-05-02T00:48:26.071Z,1.50
2018-05-02T00:50:53.108Z,0.80
2018-05-02T00:53:19.403Z,1.30
2018-05-02T00:55:45.724Z,1.70
2018-05-02T00:58:12.061Z,1.30
2018-05-02T01:00:38.414Z,1.43
2018-05-02T01:03:04.901Z,1.20
2018-05-02T01:05:31.200Z,1.13
2018-05-02T01:07:59.176Z,1.67
2018-05-02T01:10:26.248Z,2.40
2018-05-02T01:12:52.556Z,2.90
2018-05-02T01:15:20.620Z,3.53
2018-05-02T01:17:47.028Z,6.07
2018-05-02T01:20:13.314Z,5.97
2018-05-02T01:22:39.587Z,6.90
2018-05-02T01:25:05.895Z,5.07
2018-05-02T01:27:32.191Z,4.30
2018-05-02T01:29:59.284Z,4.47
2018-05-02T01:32:25.616Z,4.13
2018-05-02T01:34:51.908Z,2.83
2018-05-02T01:37:18.187Z,4.03
2018-05-02T01:39:44.471Z,2.90
2018-05-02T01:42:11.498Z,1.30
2018-05-02T01:44:38.532Z,2.13
2018-05-02T01:47:04.835Z,1.40
2018-05-02T01:49:31.153Z,1.30
2018-05-02T01:51:57.446Z,1.67
2018-05-02T01:54:24.532Z,1.17
2018-05-02T01:56:50.822Z,1.20
2018-05-02T01:59:17.892Z,1.30
2018-05-02T02:01:44.177Z,1.33
2018-05-02T02:04:10.489Z,1.30
2018-05-02T02:06:36.804Z,1.10
2018-05-02T02:09:03.129Z,1.20
2018-05-02T02:11:29.432Z,1.70
2018-05-02T02:13:56.522Z,1.27
2018-05-02T02:16:22.812Z,1.33
2018-05-02T02:18:49.827Z,1.47
2018-05-02T02:21:16.139Z,1.20
2018-05-02T02:23:42.421Z,1.10
2018-05-02T02:26:09.516Z,1.03
2018-05-02T02:28:35.843Z,1.07
2018-05-02T02:31:02.176Z,1.17
2018-05-02T02:33:28.590Z,0.70
2018-05-02T02:35:54.903Z,0.83
2018-05-02T02:38:21.200Z,1.30
2018-05-02T02:40:48.292Z,1.20
2018-05-02T02:43:14.592Z,0.93
2018-05-02T02:45:41.632Z,1.70
2018-05-02T02:48:08.655Z,1.33
2018-05-02T02:50:34.967Z,0.83
2018-05-02T02:53:01.280Z,1.20
2018-05-02T02:55:27.627Z,1.77
2018-05-02T02:57:53.916Z,1.30
2018-05-02T03:00:20.989Z,1.07
2018-05-02T03:02:47.259Z,1.10
2018-05-02T03:05:13.564Z,1.03
2018-05-02T03:07:39.852Z,0.93
2018-05-02T03:10:06.911Z,0.97
2018-05-02T03:12:33.983Z,1.53
2018-05-02T03:15:00.267Z,1.27
2018-05-02T03:17:27.330Z,1.50
2018-05-02T03:19:54.360Z,1.53
2018-05-02T03:22:21.416Z,1.20
2018-05-02T03:24:48.463Z,1.27
2018-05-02T03:27:15.557Z,0.87
2018-05-02T03:29:41.872Z,1.57
2018-05-02T03:32:08.179Z,1.03
2018-05-02T03:34:35.224Z,1.63
2018-05-02T03:37:02.339Z,1.03
2018-05-02T03:39:28.657Z,1.10
2018-05-02T03:41:54.962Z,1.73
2018-05-02T03:44:21.301Z,1.90
2018-05-02T03:46:47.604Z,2.13
2018-05-02T03:49:14.711Z,1.43
2018-05-02T03:51:41.035Z,1.60
2018-05-02T03:54:07.362Z,1.17
2018-05-02T03:56:33.681Z,1.20
2018-05-02T03:58:59.963Z,1.13
2018-05-02T04:01:38.488Z,1.67
2018-05-02T04:04:17.697Z,0.87
2018-05-02T04:07:15.595Z,1.20
2018-05-02T04:09:42.633Z,1.20
2018-05-02T04:12:09.695Z,1.00
2018-05-02T04:14:36.768Z,1.30
2018-05-02T04:17:03.052Z,2.40
2018-05-02T04:19:29.448Z,1.00
2018-05-02T04:21:55.736Z,1.73
2018-05-02T04:24:22.796Z,1.13
2018-05-02T04:26:49.099Z,1.23
2018-05-02T04:29:15.416Z,1.23
2018-05-02T04:31:41.757Z,1.93
2018-05-02T04:34:08.001Z,1.77
2018-05-02T04:36:35.057Z,1.00
2018-05-02T04:39:02.140Z,1.83
2018-05-02T04:41:28.501Z,1.20
2018-05-02T04:43:54.796Z,1.17
2018-05-02T04:46:21.102Z,1.47
2018-05-02T04:48:47.430Z,1.77
2018-05-02T04:51:14.469Z,1.50
2018-05-02T04:53:41.540Z,1.67
2018-05-02T04:56:07.827Z,1.57
2018-05-02T04:58:35.092Z,1.40
2018-05-02T05:01:02.221Z,2.00
2018-05-02T05:03:28.551Z,2.47
2018-05-02T05:05:54.886Z,1.50
2018-05-02T05:08:21.192Z,1.43
2018-05-02T05:10:47.476Z,1.50
2018-05-02T05:13:14.530Z,1.73
2018-05-02T05:15:41.587Z,1.93
2018-05-02T05:18:07.875Z,1.60
2018-05-02T05:20:34.193Z,1.60
2018-05-02T05:23:00.490Z,2.57
2018-05-02T05:25:26.870Z,1.83
2018-05-02T05:27:53.534Z,1.73
2018-05-02T05:30:21.459Z,1.83
2018-05-02T05:32:48.494Z,1.70
2018-05-02T05:35:14.808Z,3.30
2018-05-02T05:37:41.121Z,1.83
2018-05-02T05:40:08.177Z,1.57
2018-05-02T05:42:34.474Z,1.60
2018-05-02T05:45:00.768Z,1.30
2018-05-02T05:47:27.091Z,1.30
2018-05-02T05:49:53.439Z,2.23
2018-05-02T05:52:20.593Z,1.63
2018-05-02T05:54:46.911Z,1.33
2018-05-02T05:57:13.711Z,5.37
2018-05-02T05:59:40.752Z,1.50
2018-05-02T06:02:07.826Z,2.00
2018-05-02T06:04:34.120Z,2.43
2018-05-02T06:07:00.438Z,2.83
2018-05-02T06:09:26.735Z,1.80
2018-05-02T06:11:53.047Z,1.40
2018-05-02T06:14:19.341Z,1.50
2018-05-02T06:16:45.648Z,1.70
2018-05-02T06:19:11.960Z,2.13
2018-05-02T06:21:38.287Z,1.60
2018-05-02T06:24:04.612Z,2.13
2018-05-02T06:26:30.916Z,1.70
2018-05-02T06:28:57.964Z,1.70
2018-05-02T06:31:25.020Z,1.73
2018-05-02T06:33:52.052Z,1.90
2018-05-02T06:36:19.092Z,3.13
2018-05-02T06:38:45.397Z,1.60
2018-05-02T06:41:11.695Z,7.93
2018-05-02T06:43:38.003Z,1.77
2018-05-02T06:46:05.063Z,2.27
2018-05-02T06:48:31.347Z,1.77
2018-05-02T06:50:57.663Z,2.10
2018-05-02T06:53:23.943Z,2.37
2018-05-02T06:55:51.008Z,2.10
2018-05-02T06:58:17.284Z,2.10
2018-05-02T07:00:43.633Z,2.10
2018-05-02T07:03:09.921Z,2.87
2018-05-02T07:05:36.698Z,2.93
2018-05-02T07:08:03.006Z,1.67
2018-05-02T07:10:29.309Z,2.87
2018-05-02T07:12:55.608Z,2.00
2018-05-02T07:15:22.668Z,1.60
2018-05-02T07:17:48.955Z,2.90
2018-05-02T07:20:15.265Z,3.50
2018-05-02T07:22:41.593Z,2.97
2018-05-02T07:25:07.884Z,2.07
2018-05-02T07:27:34.887Z,2.17
2018-05-02T07:30:01.204Z,1.97
2018-05-02T07:32:27.518Z,2.37
2018-05-02T07:34:53.829Z,3.10
2018-05-02T07:37:20.861Z,3.03
2018-05-02T07:39:47.883Z,3.13
2018-05-02T07:42:14.232Z,2.50
2018-05-02T07:44:40.511Z,2.00
2018-05-02T07:47:06.823Z,2.67
2018-05-02T07:49:33.126Z,2.00
2018-05-02T07:52:00.164Z,3.67
2018-05-02T07:54:26.467Z,4.10
2018-05-02T07:56:52.764Z,2.73
2018-05-02T07:59:19.044Z,2.50
2018-05-02T08:01:45.344Z,2.03
2018-05-02T08:04:11.621Z,2.20
2018-05-02T08:06:38.661Z,2.00
2018-05-02T08:09:04.984Z,3.17
2018-05-02T08:11:31.282Z,2.83
2018-05-02T08:13:57.583Z,2.67
2018-05-02T08:16:24.635Z,2.10
2018-05-02T08:18:50.946Z,2.10
2018-05-02T08:21:18.028Z,1.77
2018-05-02T08:23:44.300Z,2.20
2018-05-02T08:26:10.585Z,2.03
2018-05-02T08:28:36.869Z,2.67
2018-05-02T08:31:03.163Z,3.77
2018-05-02T08:33:29.469Z,4.60
2018-05-02T08:35:55.780Z,2.97
2018-05-02T08:38:22.117Z,2.50
2018-05-02T08:40:49.141Z,2.53
2018-05-02T08:43:15.452Z,2.00
2018-05-02T08:45:41.749Z,2.40
2018-05-02T08:48:08.088Z,2.80
2018-05-02T08:50:34.384Z,2.00
2018-05-02T08:53:02.020Z,2.00
2018-05-02T08:55:28.328Z,4.93
2018-05-02T08:57:54.627Z,2.50
2018-05-02T09:00:20.945Z,2.23
2018-05-02T09:02:47.246Z,3.00
2018-05-02T09:05:13.545Z,2.97
2018-05-02T09:07:39.832Z,2.20
2018-05-02T09:10:06.860Z,2.53
2018-05-02T09:12:33.155Z,2.20
2018-05-02T09:14:59.444Z,1.90
2018-05-02T09:17:26.504Z,2.50
2018-05-02T09:19:52.818Z,2.40
2018-05-02T09:22:19.848Z,2.20
2018-05-02T09:24:46.151Z,2.67
2018-05-02T09:27:12.454Z,1.77
2018-05-02T09:29:38.724Z,1.90
2018-05-02T09:32:05.016Z,2.27
2018-05-02T09:34:31.327Z,2.97
2018-05-02T09:36:57.659Z,1.83
2018-05-02T09:39:23.979Z,2.20
2018-05-02T09:41:51.007Z,3.43
2018-05-02T09:44:17.313Z,1.90
2018-05-02T09:46:43.647Z,1.70
2018-05-02T09:49:10.002Z,1.90
2018-05-02T09:51:36.323Z,1.70
2018-05-02T09:54:02.652Z,3.67
2018-05-02T09:56:28.927Z,1.60
2018-05-02T09:58:55.229Z,1.67
2018-05-02T10:01:21.572Z,1.83
2018-05-02T10:03:48.607Z,2.90
2018-05-02T10:06:14.891Z,1.90
2018-05-02T10:08:41.210Z,2.33
2018-05-02T10:11:07.522Z,2.73
2018-05-02T10:13:34.561Z,4.17
2018-05-02T10:16:01.572Z,3.60
2018-05-02T10:18:27.934Z,2.03
2018-05-02T10:20:54.206Z,2.23
2018-05-02T10:23:20.528Z,2.83
2018-05-02T10:25:46.881Z,1.80
2018-05-02T10:28:13.164Z,4.50
2018-05-02T10:30:40.213Z,14.20
2018-05-02T10:33:07.264Z,13.80
2018-05-02T10:35:33.603Z,10.07
2018-05-02T10:37:59.915Z,12.60
2018-05-02T10:40:26.979Z,6.03
2018-05-02T10:42:53.274Z,6.40
2018-05-02T10:45:19.614Z,6.40
2018-05-02T10:47:47.354Z,31.77
2018-05-02T10:50:13.660Z,17.70
2018-05-02T10:52:39.940Z,15.43
2018-05-02T10:55:06.294Z,9.67
2018-05-02T10:57:32.604Z,6.73
2018-05-02T10:59:58.960Z,4.63
2018-05-02T11:02:25.238Z,4.50
2018-05-02T11:04:51.544Z,2.83
2018-05-02T11:07:17.843Z,1.97
2018-05-02T11:09:45.000Z,1.90
2018-05-02T11:12:11.358Z,2.47
2018-05-02T11:14:37.697Z,1.50
2018-05-02T11:17:04.064Z,1.83
2018-05-02T11:19:30.510Z,2.80
2018-05-02T11:21:57.554Z,2.10
2018-05-02T11:24:23.868Z,2.17
2018-05-02T11:26:50.142Z,2.33
2018-05-02T11:29:16.443Z,2.50
2018-05-02T11:31:42.783Z,1.40
2018-05-02T11:34:09.825Z,1.83
2018-05-02T11:36:36.127Z,2.07
2018-05-02T11:39:02.480Z,1.87
2018-05-02T11:41:28.800Z,2.60
2018-05-02T11:43:55.101Z,2.10
2018-05-02T11:46:21.452Z,2.20
2018-05-02T11:48:48.613Z,1.73
2018-05-02T11:51:14.915Z,1.20
2018-05-02T11:53:41.203Z,2.57
2018-05-02T11:56:08.266Z,1.23
2018-05-02T11:58:34.575Z,1.57
2018-05-02T12:01:01.612Z,1.43
2018-05-02T12:03:27.987Z,1.47
2018-05-02T12:05:54.219Z,1.73
2018-05-02T12:08:20.531Z,1.27
2018-05-02T12:10:46.824Z,2.57
2018-05-02T12:13:13.149Z,1.37
2018-05-02T12:15:39.441Z,1.20
2018-05-02T12:18:05.740Z,1.63
2018-05-02T12:20:32.761Z,1.10
2018-05-02T12:22:59.051Z,1.20
2018-05-02T12:25:25.367Z,1.13
2018-05-02T12:27:51.708Z,1.13
2018-05-02T12:30:18.019Z,1.40
2018-05-02T12:32:45.060Z,1.30
2018-05-02T12:35:12.119Z,1.33
2018-05-02T12:37:39.143Z,2.60
2018-05-02T12:40:06.231Z,1.33
2018-05-02T12:42:32.504Z,1.40
2018-05-02T12:44:58.795Z,1.33
2018-05-02T12:47:25.125Z,1.07
2018-05-02T12:49:51.413Z,1.23
2018-05-02T12:52:18.452Z,1.40
2018-05-02T12:54:44.716Z,1.37
2018-05-02T12:57:11.009Z,2.47
2018-05-02T12:59:37.303Z,1.50
2018-05-02T13:02:03.603Z,1.30
2018-05-02T13:04:30.639Z,1.60
2018-05-02T13:06:57.676Z,1.23
2018-05-02T13:09:24.714Z,1.93
2018-05-02T13:11:51.068Z,1.53
2018-05-02T13:14:18.096Z,1.73
2018-05-02T13:16:44.391Z,1.80
2018-05-02T13:19:10.683Z,2.87
2018-05-02T13:21:37.724Z,2.43
2018-05-02T13:24:04.784Z,1.30
2018-05-02T13:26:31.823Z,1.27
2018-05-02T13:28:58.876Z,2.23
2018-05-02T13:31:25.904Z,1.40
2018-05-02T13:33:52.953Z,1.73
2018-05-02T13:36:19.243Z,1.30
2018-05-02T13:38:45.513Z,1.80
2018-05-02T13:41:12.527Z,1.83
2018-05-02T13:43:38.824Z,1.90
2018-05-02T13:46:05.129Z,2.30
2018-05-02T13:48:32.132Z,1.50
2018-05-02T13:50:58.440Z,2.03
2018-05-02T13:53:24.752Z,1.50
2018-05-02T13:55:51.085Z,1.33
2018-05-02T13:58:17.391Z,1.23
2018-05-02T14:00:43.690Z,1.70
2018-05-02T14:03:09.972Z,3.07
2018-05-02T14:05:37.015Z,2.10
2018-05-02T14:08:04.107Z,1.70
2018-05-02T14:10:30.403Z,1.30
2018-05-02T14:12:56.702Z,1.60
2018-05-02T14:15:23.004Z,3.00
2018-05-02T14:17:49.298Z,1.27
2018-05-02T14:20:15.674Z,2.07
2018-05-02T14:22:42.079Z,1.80
2018-05-02T14:25:08.365Z,1.43
2018-05-02T14:27:34.777Z,1.20
2018-05-02T14:30:01.056Z,1.57
2018-05-02T14:32:27.450Z,1.60
2018-05-02T14:34:53.814Z,2.20
2018-05-02T14:37:20.839Z,1.40
2018-05-02T14:39:47.932Z,1.37
2018-05-02T14:42:14.219Z,2.93
2018-05-02T14:44:40.596Z,1.47
2018-05-02T14:47:07.024Z,1.37
2018-05-02T14:49:33.377Z,1.07
2018-05-02T14:51:59.766Z,3.00
2018-05-02T14:54:26.913Z,1.73
2018-05-02T14:56:53.353Z,2.50
2018-05-02T14:59:19.785Z,1.73
2018-05-02T15:01:46.947Z,1.20
2018-05-02T15:04:13.296Z,1.63
2018-05-02T15:06:39.623Z,1.30
2018-05-02T15:09:05.963Z,1.20
2018-05-02T15:11:32.349Z,2.57
2018-05-02T15:13:59.439Z,1.00
2018-05-02T15:16:25.788Z,2.37
2018-05-02T15:18:52.144Z,3.20
2018-05-02T15:21:18.510Z,2.43
2018-05-02T15:23:44.857Z,1.30
2018-05-02T15:26:11.480Z,2.27
2018-05-02T15:28:37.844Z,1.20
2018-05-02T15:31:04.146Z,2.40
2018-05-02T15:33:30.620Z,0.93
2018-05-02T15:35:56.926Z,1.10
2018-05-02T15:38:23.240Z,2.00
2018-05-02T15:40:49.595Z,1.30
2018-05-02T15:43:15.888Z,2.00
2018-05-02T15:45:43.995Z,1.77
2018-05-02T15:48:10.377Z,2.60
2018-05-02T15:50:36.743Z,1.30
2018-05-02T15:53:03.340Z,2.87
2018-05-02T15:55:30.573Z,1.73
2018-05-02T15:57:57.011Z,1.40
2018-05-02T16:00:23.423Z,1.30
2018-05-02T16:02:49.998Z,1.50
2018-05-02T16:05:18.309Z,2.30
2018-05-02T16:07:46.785Z,1.67
2018-05-02T16:10:14.662Z,1.10
2018-05-02T16:12:41.285Z,1.17
2018-05-02T16:15:07.939Z,1.60
2018-05-02T16:17:35.496Z,1.60
2018-05-02T16:20:01.953Z,2.67
2018-05-02T16:22:28.339Z,1.57
2018-05-02T16:24:56.382Z,1.90
2018-05-02T16:27:23.300Z,1.47
2018-05-02T16:29:49.613Z,3.40
2018-05-02T16:32:15.911Z,1.33
2018-05-02T16:34:42.963Z,1.20
2018-05-02T16:37:09.991Z,1.20
2018-05-02T16:39:36.691Z,1.20
2018-05-02T16:42:03.015Z,1.20
2018-05-02T16:44:29.353Z,2.13
2018-05-02T16:46:55.653Z,1.20
2018-05-02T16:49:22.733Z,1.80
2018-05-02T16:51:49.043Z,1.93
2018-05-02T16:54:15.514Z,1.70
2018-05-02T16:56:42.250Z,1.40
2018-05-02T16:59:08.557Z,2.10
2018-05-02T17:01:34.849Z,1.50
2018-05-02T17:04:01.257Z,1.00
2018-05-02T17:06:28.248Z,1.17
2018-05-02T17:08:55.290Z,1.00
2018-05-02T17:11:22.337Z,0.90
2018-05-02T17:13:49.403Z,2.33
2018-05-02T17:16:15.696Z,2.07
2018-05-02T17:18:42.020Z,1.50
2018-05-02T17:21:08.803Z,1.80
2018-05-02T17:23:35.816Z,1.20
2018-05-02T17:26:02.119Z,1.20
2018-05-02T17:28:28.437Z,1.50
2018-05-02T17:30:54.756Z,2.30
2018-05-02T17:33:21.069Z,1.50
2018-05-02T17:35:48.101Z,1.20
2018-05-02T17:38:15.112Z,2.33
2018-05-02T17:40:41.477Z,1.50
2018-05-02T17:43:08.511Z,3.53
2018-05-02T17:45:34.802Z,1.23
2018-05-02T17:48:01.107Z,0.93
2018-05-02T17:50:28.161Z,2.00
2018-05-02T17:52:54.481Z,0.83
2018-05-02T17:55:20.836Z,1.00
2018-05-02T17:57:47.116Z,1.53
2018-05-02T18:00:13.473Z,1.70
2018-05-02T18:02:40.517Z,1.63
2018-05-02T18:05:07.568Z,1.27
2018-05-02T18:07:34.699Z,1.20
2018-05-02T18:10:01.007Z,2.80
2018-05-02T18:12:27.338Z,1.40
2018-05-02T18:14:53.638Z,1.20
2018-05-02T18:17:19.975Z,3.13
2018-05-02T18:19:46.301Z,2.07
2018-05-02T18:22:12.579Z,1.50
2018-05-02T18:24:39.247Z,3.50
2018-05-02T18:27:06.467Z,1.77
2018-05-02T18:29:32.865Z,1.67
2018-05-02T18:31:59.190Z,2.57
2018-05-02T18:34:25.691Z,2.50
2018-05-02T18:36:52.735Z,1.07
2018-05-02T18:39:19.796Z,1.60
2018-05-02T18:41:47.533Z,1.17
2018-05-02T18:44:13.844Z,1.43
2018-05-02T18:46:40.161Z,6.03
2018-05-02T18:49:06.500Z,2.73
2018-05-02T18:51:32.815Z,3.13
2018-05-02T18:53:59.898Z,1.27
2018-05-02T18:56:26.191Z,1.47
2018-05-02T18:58:52.501Z,1.97
2018-05-02T19:01:18.886Z,1.27
2018-05-02T19:03:45.178Z,1.57
2018-05-02T19:06:11.526Z,1.63
2018-05-02T19:08:37.820Z,1.80
2018-05-02T19:11:04.161Z,1.20
2018-05-02T19:13:30.776Z,1.93
2018-05-02T19:15:57.567Z,1.70
2018-05-02T19:18:29.971Z,1.50
2018-05-02T19:20:56.353Z,2.63
2018-05-02T19:23:22.994Z,3.30
2018-05-02T19:25:55.559Z,3.27
2018-05-02T19:28:21.857Z,3.37
2018-05-02T19:30:54.187Z,7.27
2018-05-02T19:33:26.615Z,8.10
2018-05-02T19:35:52.965Z,8.43
2018-05-02T19:38:19.510Z,7.23
2018-05-02T19:40:51.799Z,8.03
2018-05-02T19:43:33.985Z,6.53
2018-05-02T19:46:00.413Z,5.03
2018-05-02T19:48:26.767Z,6.47
2018-05-02T19:50:59.061Z,8.80
2018-05-02T19:53:25.361Z,4.97
2018-05-02T19:55:51.640Z,3.63
2018-05-02T19:58:18.732Z,4.27
2018-05-02T20:00:51.001Z,4.23
2018-05-02T20:03:17.293Z,4.87
2018-05-02T20:05:43.628Z,4.03
2018-05-02T20:08:15.852Z,3.20
2018-05-02T20:10:48.242Z,2.97
2018-05-02T20:13:20.703Z,3.77
2018-05-02T20:15:47.044Z,2.30
2018-05-02T20:18:13.365Z,3.33
2018-05-02T20:20:39.693Z,4.20
2018-05-02T20:23:06.045Z,4.87
2018-05-02T20:25:32.368Z,2.10
2018-05-02T20:27:58.713Z,2.93
2018-05-02T20:30:24.987Z,2.43
2018-05-02T20:32:51.285Z,2.97
2018-05-02T20:35:17.710Z,2.10
2018-05-02T20:37:44.016Z,2.30
2018-05-02T20:40:10.299Z,3.40
2018-05-02T20:42:37.362Z,4.67
2018-05-02T20:45:03.659Z,4.20
2018-05-02T20:47:29.949Z,5.37
2018-05-02T20:49:56.630Z,4.37
2018-05-02T20:52:23.655Z,5.23
2018-05-02T20:54:50.108Z,4.20
2018-05-02T20:57:17.137Z,6.90
2018-05-02T20:59:44.202Z,4.30
2018-05-02T21:02:10.605Z,3.47
2018-05-02T21:04:37.538Z,3.47
2018-05-02T21:07:04.276Z,2.33
2018-05-02T21:09:30.621Z,2.53
2018-05-02T21:11:56.915Z,4.80
2018-05-02T21:14:23.456Z,2.70
2018-05-02T21:16:49.701Z,3.80
2018-05-02T21:19:15.986Z,2.40
2018-05-02T21:21:42.281Z,2.37
2018-05-02T21:24:08.560Z,3.00
2018-05-02T21:26:35.584Z,2.77
2018-05-02T21:29:01.887Z,2.03
2018-05-02T21:31:28.165Z,2.33
2018-05-02T21:33:55.213Z,3.30
2018-05-02T21:36:22.260Z,2.40
2018-05-02T21:38:49.275Z,2.50
2018-05-02T21:41:15.816Z,2.27
2018-05-02T21:43:42.104Z,2.33
2018-05-02T21:46:08.452Z,1.90
2018-05-02T21:48:34.819Z,2.60
2018-05-02T21:51:01.132Z,3.67
2018-05-02T21:53:27.432Z,3.33
2018-05-02T21:55:53.735Z,1.83
2018-05-02T21:58:20.769Z,1.87
2018-05-02T22:00:47.821Z,2.87
2018-05-02T22:03:14.862Z,1.63
2018-05-02T22:05:41.940Z,2.60
2018-05-02T22:08:08.331Z,2.60
2018-05-02T22:10:34.643Z,2.30
2018-05-02T22:13:00.933Z,1.53
2018-05-02T22:15:27.240Z,1.90
2018-05-02T22:17:54.330Z,2.53
2018-05-02T22:20:20.612Z,4.07
2018-05-02T22:22:47.667Z,3.50
2018-05-02T22:25:14.693Z,3.03
2018-05-02T22:27:41.099Z,1.67
2018-05-02T22:30:07.604Z,1.90
2018-05-02T22:32:33.935Z,1.60
2018-05-02T22:35:00.255Z,2.17
2018-05-02T22:37:27.450Z,1.70
2018-05-02T22:39:53.874Z,3.10
2018-05-02T22:42:20.155Z,3.67
2018-05-02T22:44:47.246Z,2.00
2018-05-02T22:47:13.530Z,3.83
2018-05-02T22:49:39.896Z,1.47
2018-05-02T22:52:06.192Z,1.93
2018-05-02T22:54:32.552Z,1.57
2018-05-02T22:56:58.844Z,2.30
2018-05-02T22:59:25.154Z,1.20
2018-05-02T23:01:51.465Z,1.57
2018-05-02T23:04:17.755Z,2.20
2018-05-02T23:06:44.851Z,2.70
2018-05-02T23:09:11.132Z,2.50
2018-05-02T23:11:38.147Z,4.10
2018-05-02T23:14:04.452Z,2.10
2018-05-02T23:16:31.181Z,1.60
2018-05-02T23:18:57.484Z,1.60
2018-05-02T23:21:24.556Z,1.43
2018-05-02T23:23:50.863Z,1.90
2018-05-02T23:26:17.953Z,2.10
2018-05-02T23:28:44.235Z,1.80
2018-05-02T23:31:11.255Z,1.60
2018-05-02T23:33:37.540Z,3.17
2018-05-02T23:36:03.820Z,2.37
2018-05-02T23:38:30.202Z,1.90
2018-05-02T23:40:56.512Z,1.90
2018-05-02T23:43:23.552Z,2.00
2018-05-02T23:45:50.591Z,2.10
2018-05-02T23:48:16.895Z,1.47
2018-05-02T23:50:43.270Z,1.80
2018-05-02T23:53:10.339Z,1.53
2018-05-02T23:55:36.651Z,1.47
2018-05-02T23:58:03.712Z,1.73
